createdAt,value
2019-05-14T00:00:21.479Z,7.70
2019-05-14T00:02:52.132Z,7.57
2019-05-14T00:05:23.360Z,6.83
2019-05-14T00:07:54.331Z,8.23
2019-05-14T00:10:26.457Z,9.13
2019-05-14T00:12:57.669Z,9.63
2019-05-14T00:15:32.046Z,9.53
2019-05-14T00:18:03.105Z,8.83
2019-05-14T00:20:34.340Z,9.07
2019-05-14T00:23:05.819Z,6.57
2019-05-14T00:25:46.025Z,6.93
2019-05-14T00:28:44.457Z,5.90
2019-05-14T00:31:42.723Z,6.63
2019-05-14T00:34:13.841Z,7.33
2019-05-14T00:36:48.936Z,7.87
2019-05-14T00:39:42.326Z,5.80
2019-05-14T00:42:23.009Z,4.83
2019-05-14T00:44:53.830Z,5.10
2019-05-14T00:47:16.377Z,4.83
2019-05-14T00:49:51.802Z,3.97
2019-05-14T00:52:23.820Z,2.70
2019-05-14T00:54:58.026Z,2.70
2019-05-14T00:57:31.656Z,3.80
2019-05-14T01:00:03.954Z,2.60
2019-05-14T01:02:38.284Z,3.10
2019-05-14T01:05:12.176Z,2.93
2019-05-14T01:07:42.786Z,2.77
2019-05-14T01:10:22.693Z,3.73
2019-05-14T01:13:02.280Z,2.33
2019-05-14T01:15:32.218Z,2.23
2019-05-14T01:18:11.341Z,2.80
2019-05-14T01:20:41.083Z,1.73
2019-05-14T01:23:11.753Z,2.10
2019-05-14T01:25:43.084Z,2.43
2019-05-14T01:28:13.836Z,2.20
2019-05-14T01:30:44.657Z,1.57
2019-05-14T01:33:15.498Z,2.43
2019-05-14T01:35:46.418Z,2.20
2019-05-14T01:38:24.416Z,1.97
2019-05-14T01:40:55.364Z,1.97
2019-05-14T01:43:26.284Z,2.00
2019-05-14T01:45:57.286Z,2.10
2019-05-14T01:48:28.148Z,2.10
2019-05-14T01:51:01.312Z,2.27
2019-05-14T01:53:31.637Z,2.00
2019-05-14T01:56:02.597Z,1.87
2019-05-14T01:58:33.408Z,2.03
2019-05-14T02:01:04.522Z,1.93
2019-05-14T02:03:35.309Z,1.90
2019-05-14T02:06:06.235Z,1.80
2019-05-14T02:08:37.047Z,2.20
2019-05-14T02:11:07.869Z,1.93
2019-05-14T02:13:41.436Z,2.50
2019-05-14T02:16:13.239Z,1.87
2019-05-14T02:18:44.054Z,1.43
2019-05-14T02:21:16.058Z,0.70
2019-05-14T02:23:47.059Z,1.20
2019-05-14T02:26:19.128Z,1.67
2019-05-14T02:28:51.445Z,1.60
2019-05-14T02:31:23.464Z,1.70
2019-05-14T02:33:54.487Z,1.57
2019-05-14T02:36:25.537Z,1.37
2019-05-14T02:39:00.103Z,1.40
2019-05-14T02:41:32.658Z,1.30
2019-05-14T02:44:10.943Z,1.80
2019-05-14T02:46:44.545Z,1.50
2019-05-14T02:49:15.754Z,1.80
2019-05-14T02:51:50.490Z,1.57
2019-05-14T02:54:23.932Z,1.40
2019-05-14T02:56:59.633Z,1.60
2019-05-14T02:59:50.143Z,1.50
2019-05-14T03:02:20.539Z,1.63
2019-05-14T03:04:53.579Z,1.80
2019-05-14T03:07:30.150Z,1.90
2019-05-14T03:10:04.386Z,1.67
2019-05-14T03:12:39.557Z,1.63
2019-05-14T03:15:10.110Z,1.70
2019-05-14T03:18:02.526Z,1.93
2019-05-14T03:20:39.085Z,1.43
2019-05-14T03:26:19.614Z,1.17
2019-05-14T03:29:13.110Z,1.97
2019-05-14T03:31:45.652Z,1.90
2019-05-14T03:34:22.281Z,1.20
2019-05-14T03:37:03.096Z,1.83
2019-05-14T03:39:35.531Z,1.30
2019-05-14T03:42:21.463Z,1.37
2019-05-14T03:44:55.450Z,2.47
2019-05-14T03:47:29.623Z,3.20
2019-05-14T03:50:02.328Z,4.73
2019-05-14T03:52:43.653Z,4.40
2019-05-14T03:55:20.245Z,2.37
2019-05-14T03:58:39.121Z,2.23
2019-05-14T04:01:40.731Z,2.37
2019-05-14T04:04:34.543Z,2.10
2019-05-14T04:07:09.960Z,1.63
2019-05-14T04:09:49.360Z,1.43
2019-05-14T04:12:21.857Z,0.90
2019-05-14T04:14:59.383Z,1.67
2019-05-14T04:17:42.196Z,1.63
2019-05-14T04:20:19.443Z,1.27
2019-05-14T04:22:51.486Z,1.27
2019-05-14T04:25:22.948Z,1.23
2019-05-14T04:28:00.251Z,0.93
2019-05-14T04:30:34.256Z,0.80
2019-05-14T04:33:05.991Z,1.40
2019-05-14T04:35:43.314Z,0.90
2019-05-14T04:38:20.233Z,1.00
2019-05-14T04:40:53.540Z,0.97
2019-05-14T04:43:29.370Z,1.73
2019-05-14T04:46:00.368Z,0.97
2019-05-14T04:48:37.684Z,1.10
2019-05-14T04:51:04.803Z,0.90
2019-05-14T04:53:39.053Z,0.80
2019-05-14T04:56:13.077Z,0.43
2019-05-14T04:58:49.273Z,0.60
2019-05-14T05:01:20.499Z,0.70
2019-05-14T05:03:53.117Z,0.93
2019-05-14T05:06:25.222Z,1.30
2019-05-14T05:08:56.190Z,0.87
2019-05-14T05:11:29.092Z,0.67
2019-05-14T05:14:00.277Z,1.50
2019-05-14T05:16:31.971Z,1.00
2019-05-14T05:19:04.357Z,1.33
2019-05-14T05:21:38.684Z,1.20
2019-05-14T05:24:10.458Z,1.00
2019-05-14T05:26:42.082Z,0.27
2019-05-14T05:29:13.714Z,0.30
2019-05-14T05:31:45.357Z,0.37
2019-05-14T05:34:19.206Z,0.60
2019-05-14T05:36:50.828Z,0.50
2019-05-14T05:39:22.482Z,0.60
2019-05-14T05:41:54.143Z,0.60
2019-05-14T05:44:28.510Z,0.43
2019-05-14T05:46:59.756Z,0.80
2019-05-14T05:49:31.424Z,1.53
2019-05-14T05:52:04.456Z,0.90
2019-05-14T05:54:38.324Z,1.43
2019-05-14T05:57:09.875Z,1.47
2019-05-14T05:59:42.071Z,0.47
2019-05-14T06:02:14.714Z,0.83
2019-05-14T06:04:48.048Z,0.50
2019-05-14T06:07:20.194Z,0.60
2019-05-14T06:09:51.790Z,0.70
2019-05-14T06:12:23.449Z,0.60
2019-05-14T06:14:57.924Z,1.40
2019-05-14T06:17:29.344Z,1.00
2019-05-14T06:20:00.946Z,0.90
2019-05-14T06:22:32.429Z,0.97
2019-05-14T06:25:04.829Z,0.40
2019-05-14T06:27:37.995Z,0.33
2019-05-14T06:30:10.937Z,0.80
2019-05-14T06:32:43.752Z,0.40
2019-05-14T06:35:16.175Z,0.50
2019-05-14T06:37:48.962Z,0.80
2019-05-14T06:40:20.826Z,0.70
2019-05-14T06:42:55.504Z,1.23
2019-05-14T06:45:29.234Z,0.70
2019-05-14T06:48:00.802Z,0.47
2019-05-14T06:50:32.917Z,4.40
2019-05-14T06:53:04.478Z,3.43
2019-05-14T06:55:36.151Z,1.40
2019-05-14T06:58:09.183Z,0.53
2019-05-14T07:00:41.314Z,0.70
2019-05-14T07:03:13.066Z,0.63
2019-05-14T07:05:45.482Z,2.07
2019-05-14T07:08:18.771Z,0.40
2019-05-14T07:10:50.707Z,1.50
2019-05-14T07:13:23.553Z,2.10
2019-05-14T07:15:55.279Z,1.20
2019-05-14T07:18:30.210Z,0.60
2019-05-14T07:21:00.859Z,0.63
2019-05-14T07:23:32.809Z,0.70
2019-05-14T07:26:05.351Z,0.60
2019-05-14T07:28:42.130Z,1.23
2019-05-14T07:31:10.877Z,0.80
2019-05-14T07:33:42.925Z,1.27
2019-05-14T07:36:15.168Z,0.60
2019-05-14T07:38:49.050Z,0.30
2019-05-14T07:41:20.499Z,0.80
2019-05-14T07:43:52.230Z,0.63
2019-05-14T07:46:24.501Z,0.97
2019-05-14T07:49:05.478Z,1.10
2019-05-14T07:51:30.027Z,0.70
2019-05-14T07:54:03.122Z,0.50
2019-05-14T07:56:34.805Z,1.00
2019-05-14T07:59:08.480Z,0.60
2019-05-14T08:01:39.949Z,0.50
2019-05-14T08:04:11.990Z,0.53
2019-05-14T08:06:43.432Z,0.60
2019-05-14T08:09:15.239Z,0.67
2019-05-14T08:11:48.024Z,0.40
2019-05-14T08:14:19.621Z,0.93
2019-05-14T08:16:52.974Z,0.40
2019-05-14T08:19:27.859Z,0.60
2019-05-14T08:21:59.060Z,0.30
2019-05-14T08:24:30.922Z,0.60
2019-05-14T08:27:02.333Z,0.97
2019-05-14T08:29:36.852Z,0.70
2019-05-14T08:32:08.848Z,0.40
2019-05-14T08:34:40.770Z,0.50
2019-05-14T08:37:12.658Z,0.30
2019-05-14T08:39:48.396Z,1.30
2019-05-14T08:42:19.017Z,0.47
2019-05-14T08:44:51.410Z,1.23
2019-05-14T08:47:23.564Z,0.53
2019-05-14T08:49:54.643Z,0.50
2019-05-14T08:52:28.587Z,0.83
2019-05-14T08:55:07.219Z,0.30
2019-05-14T08:57:32.692Z,0.50
2019-05-14T09:00:04.460Z,1.27
2019-05-14T09:02:39.098Z,0.80
2019-05-14T09:05:11.094Z,0.90
2019-05-14T09:07:43.651Z,0.80
2019-05-14T09:10:15.582Z,0.30
2019-05-14T09:12:49.107Z,0.60
2019-05-14T09:15:20.498Z,0.73
2019-05-14T09:17:52.269Z,0.50
2019-05-14T09:20:23.616Z,0.40
2019-05-14T09:22:55.400Z,0.20
2019-05-14T09:25:29.041Z,0.60
2019-05-14T09:28:00.060Z,0.60
2019-05-14T09:30:31.798Z,0.63
2019-05-14T09:33:03.080Z,1.23
2019-05-14T09:35:34.855Z,0.33
2019-05-14T09:38:08.725Z,0.80
2019-05-14T09:40:40.015Z,0.77
2019-05-14T09:43:11.271Z,0.40
2019-05-14T09:45:43.377Z,0.73
2019-05-14T09:48:15.385Z,0.87
2019-05-14T09:50:49.021Z,0.50
2019-05-14T09:53:20.491Z,0.43
2019-05-14T09:55:52.387Z,0.60
2019-05-14T09:58:24.143Z,0.37
2019-05-14T10:00:58.816Z,0.53
2019-05-14T10:03:29.504Z,0.30
2019-05-14T10:06:01.262Z,2.30
2019-05-14T10:08:33.280Z,1.20
2019-05-14T10:11:05.079Z,0.50
2019-05-14T10:13:39.049Z,1.70
2019-05-14T10:16:10.399Z,2.30
2019-05-14T10:18:42.156Z,0.40
2019-05-14T10:21:14.276Z,0.60
2019-05-14T10:23:45.920Z,1.23
2019-05-14T10:26:18.602Z,0.30
2019-05-14T10:28:50.366Z,0.50
2019-05-14T10:31:22.075Z,1.83
2019-05-14T10:33:54.000Z,0.53
2019-05-14T10:36:25.183Z,1.53
2019-05-14T10:38:58.811Z,0.83
2019-05-14T10:41:29.485Z,1.00
2019-05-14T10:44:01.312Z,1.57
2019-05-14T10:46:33.032Z,1.07
2019-05-14T10:49:16.498Z,1.60
2019-05-14T10:51:38.884Z,0.80
2019-05-14T10:54:24.361Z,0.80
2019-05-14T10:56:44.748Z,0.60
2019-05-14T10:59:18.406Z,0.50
2019-05-14T11:01:50.097Z,0.50
2019-05-14T11:04:21.746Z,0.77
2019-05-14T11:06:54.615Z,0.50
2019-05-14T11:09:28.407Z,0.60
2019-05-14T11:11:59.669Z,1.10
2019-05-14T11:14:32.050Z,0.60
2019-05-14T11:17:03.278Z,1.07
2019-05-14T11:19:34.967Z,0.70
2019-05-14T11:22:08.442Z,0.37
2019-05-14T11:24:40.171Z,0.87
2019-05-14T11:27:12.080Z,0.50
2019-05-14T11:29:43.947Z,0.80
2019-05-14T11:32:18.269Z,0.77
2019-05-14T11:34:48.811Z,0.73
2019-05-14T11:37:20.541Z,0.80
2019-05-14T11:39:52.472Z,0.40
2019-05-14T11:42:24.271Z,0.50
2019-05-14T11:44:58.096Z,0.73
2019-05-14T11:47:29.165Z,0.60
2019-05-14T11:50:00.346Z,0.50
2019-05-14T11:52:31.903Z,0.70
2019-05-14T11:55:08.861Z,0.40
2019-05-14T11:57:40.836Z,0.67
2019-05-14T12:00:13.693Z,1.27
2019-05-14T12:02:44.876Z,1.53
2019-05-14T12:05:18.947Z,0.60
2019-05-14T12:07:50.875Z,0.90
2019-05-14T12:10:22.722Z,0.50
2019-05-14T12:12:54.813Z,1.23
2019-05-14T12:15:27.098Z,2.80
2019-05-14T12:17:59.734Z,0.87
2019-05-14T12:20:32.175Z,0.60
2019-05-14T12:23:03.913Z,0.60
2019-05-14T12:25:35.635Z,0.70
2019-05-14T12:28:13.264Z,1.80
2019-05-14T12:30:41.289Z,1.20
2019-05-14T12:33:13.548Z,1.43
2019-05-14T12:35:45.734Z,1.17
2019-05-14T12:38:18.813Z,0.90
2019-05-14T12:40:52.136Z,0.87
2019-05-14T12:43:24.336Z,1.10
2019-05-14T12:45:59.125Z,1.00
2019-05-14T12:48:30.098Z,0.80
2019-05-14T12:51:02.612Z,1.73
2019-05-14T12:53:33.445Z,1.13
2019-05-14T12:56:04.297Z,0.30
2019-05-14T12:58:35.117Z,0.80
2019-05-14T13:01:08.528Z,1.10
2019-05-14T13:03:39.158Z,1.60
2019-05-14T13:06:10.788Z,0.83
2019-05-14T13:08:42.799Z,0.77
2019-05-14T13:11:13.989Z,1.00
2019-05-14T13:13:45.561Z,1.20
2019-05-14T13:16:18.744Z,0.70
2019-05-14T13:18:49.795Z,0.90
2019-05-14T13:21:21.706Z,1.00
2019-05-14T13:23:52.740Z,0.70
2019-05-14T13:26:24.086Z,1.13
2019-05-14T13:28:55.349Z,1.13
2019-05-14T13:31:29.012Z,1.13
2019-05-14T13:33:59.662Z,0.80
2019-05-14T13:36:31.360Z,0.90
2019-05-14T13:39:04.643Z,0.43
2019-05-14T13:41:41.541Z,1.53
2019-05-14T13:44:21.301Z,0.80
2019-05-14T13:46:45.020Z,0.63
2019-05-14T13:49:19.704Z,1.30
2019-05-14T13:51:51.602Z,1.10
2019-05-14T13:54:24.189Z,1.17
2019-05-14T13:56:55.976Z,1.60
2019-05-14T13:59:27.717Z,1.00
2019-05-14T14:01:59.491Z,1.10
2019-05-14T14:04:31.415Z,0.70
2019-05-14T14:07:03.246Z,0.57
2019-05-14T14:09:34.787Z,0.77
2019-05-14T14:12:08.239Z,1.30
2019-05-14T14:14:49.327Z,1.00
2019-05-14T14:17:32.452Z,2.13
2019-05-14T14:20:20.003Z,0.60
2019-05-14T14:22:53.660Z,0.70
2019-05-14T14:25:29.793Z,0.50
2019-05-14T14:28:02.697Z,1.17
2019-05-14T14:30:35.892Z,0.63
2019-05-14T14:33:07.807Z,0.73
2019-05-14T14:35:39.342Z,0.70
2019-05-14T14:38:10.638Z,1.07
2019-05-14T14:40:41.897Z,0.50
2019-05-14T14:43:13.516Z,0.70
2019-05-14T14:45:46.352Z,0.80
2019-05-14T14:48:20.451Z,0.60
2019-05-14T14:50:52.621Z,0.60
2019-05-14T14:53:41.329Z,1.30
2019-05-14T14:56:00.415Z,0.50
2019-05-14T14:58:31.416Z,0.60
2019-05-14T15:01:03.665Z,0.60
2019-05-14T15:03:34.912Z,0.43
2019-05-14T15:06:09.658Z,0.70
2019-05-14T15:08:39.837Z,0.90
2019-05-14T15:11:12.422Z,1.30
2019-05-14T15:13:49.558Z,2.00
2019-05-14T15:16:21.798Z,0.67
2019-05-14T15:18:54.031Z,0.80
2019-05-14T15:21:25.696Z,1.27
2019-05-14T15:24:07.330Z,0.57
2019-05-14T15:26:30.819Z,0.80
2019-05-14T15:29:03.697Z,0.60
2019-05-14T15:31:35.260Z,0.60
2019-05-14T15:34:09.031Z,0.90
2019-05-14T15:36:41.695Z,0.73
2019-05-14T15:39:13.123Z,0.53
2019-05-14T15:41:49.670Z,0.60
2019-05-14T15:44:19.773Z,1.07
2019-05-14T15:46:51.530Z,1.50
2019-05-14T15:49:23.494Z,0.90
2019-05-14T15:52:02.001Z,0.80
2019-05-14T15:54:42.231Z,0.90
2019-05-14T15:57:10.375Z,1.30
2019-05-14T15:59:46.191Z,0.60
2019-05-14T16:02:23.575Z,0.80
2019-05-14T16:05:00.625Z,0.50
2019-05-14T16:07:34.485Z,0.80
2019-05-14T16:10:08.661Z,0.37
2019-05-14T16:12:40.288Z,1.80
2019-05-14T16:15:14.292Z,0.70
2019-05-14T16:18:03.124Z,0.67
2019-05-14T16:20:20.532Z,1.20
2019-05-14T16:22:52.423Z,1.20
2019-05-14T16:25:24.614Z,0.60
2019-05-14T16:27:58.787Z,0.60
2019-05-14T16:30:29.916Z,0.70
2019-05-14T16:33:01.585Z,0.50
2019-05-14T16:35:33.908Z,0.57
2019-05-14T16:38:23.229Z,0.67
2019-05-14T16:40:59.605Z,0.83
2019-05-14T16:43:32.399Z,1.00
2019-05-14T16:46:04.215Z,1.10
2019-05-14T16:48:35.822Z,1.50
2019-05-14T16:51:08.890Z,3.90
2019-05-14T16:53:40.937Z,4.70
2019-05-14T16:56:12.678Z,4.67
2019-05-14T16:58:43.739Z,2.17
2019-05-14T17:01:15.009Z,1.70
2019-05-14T17:03:48.952Z,1.00
2019-05-14T17:06:19.940Z,0.73
2019-05-14T17:08:52.161Z,0.73
2019-05-14T17:11:23.855Z,0.60
2019-05-14T17:13:57.628Z,0.70
2019-05-14T17:16:29.098Z,0.60
2019-05-14T17:19:00.605Z,2.30
2019-05-14T17:21:32.404Z,1.80
2019-05-14T17:24:04.102Z,0.70
2019-05-14T17:26:37.948Z,0.67
2019-05-14T17:29:08.835Z,1.03
2019-05-14T17:31:40.298Z,1.10
2019-05-14T17:34:11.955Z,0.80
2019-05-14T17:36:43.783Z,1.07
2019-05-14T17:39:15.581Z,1.20
2019-05-14T17:41:48.499Z,0.80
2019-05-14T17:44:20.556Z,3.63
2019-05-14T17:46:52.456Z,1.80
2019-05-14T17:49:23.558Z,1.80
2019-05-14T17:51:55.225Z,1.07
2019-05-14T17:54:28.468Z,1.33
2019-05-14T17:57:01.423Z,1.00
2019-05-14T17:59:33.655Z,0.97
2019-05-14T18:02:05.554Z,1.30
2019-05-14T18:04:37.347Z,0.53
2019-05-14T18:07:09.241Z,1.13
2019-05-14T18:09:41.249Z,1.23
2019-05-14T18:12:13.137Z,1.67
2019-05-14T18:14:45.064Z,1.20
2019-05-14T18:17:18.845Z,0.90
2019-05-14T18:19:50.725Z,0.60
2019-05-14T18:22:22.594Z,1.53
2019-05-14T18:24:54.366Z,2.10
2019-05-14T18:27:29.116Z,1.30
2019-05-14T18:29:59.749Z,0.73
2019-05-14T18:32:31.671Z,1.10
2019-05-14T18:35:03.421Z,1.27
2019-05-14T18:37:35.388Z,1.30
2019-05-14T18:40:09.098Z,1.33
2019-05-14T18:42:41.031Z,1.53
2019-05-14T18:45:13.021Z,6.90
2019-05-14T18:47:44.707Z,2.13
2019-05-14T18:50:19.369Z,1.77
2019-05-14T18:52:49.637Z,1.90
2019-05-14T18:55:21.597Z,3.40
2019-05-14T18:57:53.367Z,3.47
2019-05-14T19:00:25.331Z,3.50
2019-05-14T19:02:57.589Z,1.80
2019-05-14T19:05:30.089Z,2.47
2019-05-14T19:08:01.841Z,3.63
2019-05-14T19:10:33.549Z,2.70
2019-05-14T19:13:08.906Z,2.70
2019-05-14T19:15:40.893Z,1.97
2019-05-14T19:18:13.875Z,3.80
2019-05-14T19:20:45.609Z,2.23
2019-05-14T19:23:18.779Z,1.33
2019-05-14T19:25:50.677Z,1.20
2019-05-14T19:28:22.418Z,1.63
2019-05-14T19:30:54.121Z,1.73
2019-05-14T19:33:25.887Z,1.40
2019-05-14T19:35:57.598Z,1.40
2019-05-14T19:38:29.446Z,1.50
2019-05-14T19:41:01.144Z,1.93
2019-05-14T19:43:32.949Z,1.73
2019-05-14T19:46:04.575Z,1.60
2019-05-14T19:48:36.335Z,0.70
2019-05-14T19:51:08.353Z,1.30
2019-05-14T19:53:40.316Z,2.57
2019-05-14T19:56:11.623Z,2.77
2019-05-14T19:58:42.808Z,1.50
2019-05-14T20:01:13.935Z,1.40
2019-05-14T20:03:45.838Z,1.60
2019-05-14T20:06:18.724Z,1.47
2019-05-14T20:08:49.928Z,1.70
2019-05-14T20:11:20.807Z,2.00
2019-05-14T20:13:51.647Z,1.80
2019-05-14T20:16:22.466Z,1.20
2019-05-14T20:18:53.831Z,2.33
2019-05-14T20:21:25.003Z,1.40
2019-05-14T20:23:56.403Z,1.73
2019-05-14T20:26:28.212Z,1.30
2019-05-14T20:28:59.608Z,1.20
2019-05-14T20:31:30.818Z,1.10
2019-05-14T20:34:01.895Z,1.40
2019-05-14T20:36:33.429Z,1.00
2019-05-14T20:39:08.485Z,1.53
2019-05-14T20:41:39.312Z,1.30
2019-05-14T20:44:10.483Z,1.30
2019-05-14T20:46:41.873Z,1.40
2019-05-14T20:49:13.610Z,1.60
2019-05-14T20:51:45.336Z,1.87
2019-05-14T20:54:18.392Z,1.20
2019-05-14T20:56:50.465Z,1.30
2019-05-14T20:59:22.487Z,1.50
2019-05-14T21:01:58.788Z,1.40
2019-05-14T21:04:29.825Z,1.40
2019-05-14T21:07:02.665Z,1.67
2019-05-14T21:09:34.285Z,1.23
2019-05-14T21:12:13.728Z,1.50
2019-05-14T21:14:53.150Z,1.30
2019-05-14T21:17:24.541Z,1.53
2019-05-14T21:19:56.493Z,1.53
2019-05-14T21:22:29.151Z,1.07
2019-05-14T21:25:01.829Z,1.30
2019-05-14T21:27:43.883Z,1.23
2019-05-14T21:30:09.292Z,1.30
2019-05-14T21:32:42.580Z,1.53
2019-05-14T21:35:15.848Z,1.10
2019-05-14T21:37:51.470Z,1.57
2019-05-14T21:40:22.234Z,1.30
2019-05-14T21:42:53.979Z,1.50
2019-05-14T21:45:26.118Z,1.37
2019-05-14T21:48:02.381Z,1.20
2019-05-14T21:50:33.872Z,1.27
2019-05-14T21:53:05.214Z,1.27
2019-05-14T21:55:38.718Z,1.03
2019-05-14T21:58:11.923Z,1.53
2019-05-14T22:00:48.557Z,1.30
2019-05-14T22:03:20.836Z,1.27
2019-05-14T22:05:52.399Z,1.13
2019-05-14T22:08:23.606Z,1.17
2019-05-14T22:10:55.250Z,0.90
2019-05-14T22:13:28.432Z,1.00
2019-05-14T22:16:00.638Z,1.30
2019-05-14T22:18:32.061Z,1.10
2019-05-14T22:21:03.362Z,1.30
2019-05-14T22:23:34.668Z,1.00
2019-05-14T22:26:06.049Z,1.30
2019-05-14T22:28:37.502Z,1.07
2019-05-14T22:31:09.187Z,1.30
2019-05-14T22:33:40.787Z,1.17
2019-05-14T22:36:12.085Z,1.20
2019-05-14T22:38:43.804Z,1.10
2019-05-14T22:41:18.170Z,1.47
2019-05-14T22:43:51.479Z,1.53
2019-05-14T22:46:22.025Z,1.20
2019-05-14T22:48:53.630Z,1.13
2019-05-14T22:51:25.488Z,1.20
2019-05-14T22:53:58.868Z,1.43
2019-05-14T22:56:30.190Z,1.20
2019-05-14T22:59:01.542Z,1.00
2019-05-14T23:01:33.073Z,1.67
2019-05-14T23:04:05.673Z,1.30
2019-05-14T23:06:38.282Z,1.70
2019-05-14T23:09:09.744Z,1.63
2019-05-14T23:11:41.065Z,1.27
2019-05-14T23:14:12.507Z,1.20
2019-05-14T23:16:44.181Z,1.20
2019-05-14T23:19:18.606Z,0.90
2019-05-14T23:21:49.718Z,1.10
2019-05-14T23:24:21.240Z,1.50
2019-05-14T23:26:52.705Z,1.20
2019-05-14T23:29:24.557Z,1.40
2019-05-14T23:31:58.660Z,1.07
2019-05-14T23:34:29.755Z,1.67
2019-05-14T23:37:01.676Z,1.13
2019-05-14T23:39:33.254Z,0.90
2019-05-14T23:42:05.339Z,1.50
2019-05-14T23:44:38.261Z,1.20
2019-05-14T23:47:09.593Z,1.30
2019-05-14T23:49:40.928Z,1.30
2019-05-14T23:52:13.936Z,1.33
2019-05-14T23:54:45.400Z,1.13
2019-05-14T23:57:18.292Z,1.10
2019-05-14T23:59:51.051Z,1.23
